createdAt,value
2023-06-22T00:00:23.608Z,46.43
2023-06-22T00:01:24.731Z,46.42
2023-06-22T00:02:23.827Z,46.44
2023-06-22T00:03:23.878Z,46.42
2023-06-22T00:04:24.871Z,46.40
2023-06-22T00:05:23.928Z,46.42
2023-06-22T00:06:24.979Z,46.39
2023-06-22T00:07:24.051Z,46.41
2023-06-22T00:08:25.127Z,46.38
2023-06-22T00:09:25.195Z,46.40
2023-06-22T00:10:24.268Z,46.39
2023-06-22T00:11:24.298Z,46.41
2023-06-22T00:12:24.359Z,46.41
2023-06-22T00:13:25.496Z,46.38
2023-06-22T00:14:24.493Z,46.40
2023-06-22T00:15:24.578Z,46.39
2023-06-22T00:16:24.625Z,46.38
2023-06-22T00:17:24.717Z,46.38
2023-06-22T00:18:24.751Z,46.36
2023-06-22T00:19:25.804Z,46.39
2023-06-22T00:20:26.103Z,46.38
2023-06-22T00:21:25.963Z,46.37
2023-06-22T00:22:24.970Z,46.37
2023-06-22T00:23:26.037Z,46.37
2023-06-22T00:24:26.102Z,46.37
2023-06-22T00:25:25.191Z,46.37
2023-06-22T00:26:26.233Z,46.37
2023-06-22T00:27:25.300Z,46.34
2023-06-22T00:28:26.351Z,46.36
2023-06-22T00:29:26.408Z,46.37
2023-06-22T00:30:26.732Z,46.35
2023-06-22T00:31:25.545Z,46.38
2023-06-22T00:32:26.611Z,46.37
2023-06-22T00:33:26.644Z,46.34
2023-06-22T00:34:25.758Z,46.35
2023-06-22T00:35:26.782Z,46.35
2023-06-22T00:36:25.849Z,46.31
2023-06-22T00:37:25.910Z,46.33
2023-06-22T00:38:26.964Z,46.33
2023-06-22T00:39:26.035Z,46.36
2023-06-22T00:40:27.436Z,46.34
2023-06-22T00:41:27.152Z,46.31
2023-06-22T00:42:26.227Z,46.32
2023-06-22T00:43:27.284Z,46.35
2023-06-22T00:44:26.334Z,46.32
2023-06-22T00:45:27.417Z,46.32
2023-06-22T00:46:27.458Z,46.29
2023-06-22T00:47:26.541Z,46.32
2023-06-22T00:48:26.566Z,46.35
2023-06-22T00:49:27.654Z,46.32
2023-06-22T00:50:26.825Z,46.28
2023-06-22T00:51:27.794Z,46.30
2023-06-22T00:52:27.834Z,46.31
2023-06-22T00:53:26.880Z,46.29
2023-06-22T00:54:27.937Z,46.29
2023-06-22T00:55:28.015Z,46.30
2023-06-22T00:56:27.077Z,46.29
2023-06-22T00:57:27.127Z,46.32
2023-06-22T00:58:27.196Z,46.29
2023-06-22T00:59:27.347Z,46.27
2023-06-22T01:00:28.822Z,46.29
2023-06-22T01:01:27.431Z,46.28
2023-06-22T01:02:28.545Z,46.30
2023-06-22T01:03:27.508Z,46.28
2023-06-22T01:04:28.538Z,46.23
2023-06-22T01:05:27.601Z,46.26
2023-06-22T01:06:28.707Z,46.25
2023-06-22T01:07:28.729Z,46.26
2023-06-22T01:08:27.793Z,46.26
2023-06-22T01:09:28.851Z,46.26
2023-06-22T01:10:29.269Z,46.26
2023-06-22T01:11:28.973Z,46.23
2023-06-22T01:12:29.041Z,46.23
2023-06-22T01:13:29.095Z,46.28
2023-06-22T01:14:29.153Z,46.26
2023-06-22T01:15:28.229Z,46.25
2023-06-22T01:16:28.293Z,46.25
2023-06-22T01:17:28.388Z,46.25
2023-06-22T01:18:29.409Z,46.22
2023-06-22T01:19:29.456Z,46.27
2023-06-22T01:20:29.814Z,46.24
2023-06-22T01:21:29.597Z,46.22
2023-06-22T01:22:29.677Z,46.25
2023-06-22T01:23:28.717Z,46.24
2023-06-22T01:24:29.782Z,46.24
2023-06-22T01:25:29.848Z,46.24
2023-06-22T01:26:28.922Z,46.28
2023-06-22T01:27:28.957Z,46.24
2023-06-22T01:28:30.026Z,46.23
2023-06-22T01:29:30.077Z,46.22
2023-06-22T01:30:30.412Z,46.22
2023-06-22T01:31:30.227Z,46.22
2023-06-22T01:32:30.244Z,46.21
2023-06-22T01:33:29.299Z,46.24
2023-06-22T01:34:29.379Z,46.22
2023-06-22T01:35:30.421Z,46.22
2023-06-22T01:36:30.491Z,46.21
2023-06-22T01:37:29.552Z,46.20
2023-06-22T01:38:30.696Z,46.20
2023-06-22T01:39:29.666Z,46.23
2023-06-22T01:40:31.050Z,46.21
2023-06-22T01:41:30.773Z,46.22
2023-06-22T01:42:30.837Z,46.20
2023-06-22T01:43:29.896Z,46.21
2023-06-22T01:44:30.981Z,46.22
2023-06-22T01:45:31.024Z,46.19
2023-06-22T01:46:30.084Z,46.20
2023-06-22T01:47:31.227Z,46.21
2023-06-22T01:48:31.217Z,46.18
2023-06-22T01:49:31.369Z,46.17
2023-06-22T01:50:31.589Z,46.18
2023-06-22T01:51:30.392Z,46.17
2023-06-22T01:52:31.465Z,46.16
2023-06-22T01:53:31.521Z,46.20
2023-06-22T01:54:30.610Z,46.15
2023-06-22T01:55:31.639Z,46.17
2023-06-22T01:56:31.688Z,46.18
2023-06-22T01:57:30.757Z,46.19
2023-06-22T01:58:30.823Z,46.17
2023-06-22T01:59:31.883Z,46.20
2023-06-22T02:00:31.120Z,46.18
2023-06-22T02:01:31.027Z,46.15
2023-06-22T02:02:32.198Z,46.15
2023-06-22T02:03:32.285Z,46.17
2023-06-22T02:04:31.181Z,46.19
2023-06-22T02:05:32.267Z,46.15
2023-06-22T02:06:32.314Z,46.17
2023-06-22T02:07:32.386Z,46.14
2023-06-22T02:08:32.445Z,46.17
2023-06-22T02:09:32.502Z,46.15
2023-06-22T02:10:32.592Z,46.13
2023-06-22T02:11:32.625Z,46.16
2023-06-22T02:12:32.693Z,46.17
2023-06-22T02:13:32.765Z,46.14
2023-06-22T02:14:33.710Z,46.16
2023-06-22T02:15:32.878Z,46.15
2023-06-22T02:16:33.698Z,46.12
2023-06-22T02:17:32.997Z,46.16
2023-06-22T02:18:33.068Z,46.13
2023-06-22T02:19:33.120Z,46.15
2023-06-22T02:20:32.256Z,46.13
2023-06-22T02:21:33.252Z,46.12
2023-06-22T02:22:32.305Z,46.11
2023-06-22T02:23:33.366Z,46.12
2023-06-22T02:24:33.411Z,46.10
2023-06-22T02:25:33.504Z,46.10
2023-06-22T02:26:33.643Z,46.11
2023-06-22T02:27:33.591Z,46.13
2023-06-22T02:28:32.668Z,46.12
2023-06-22T02:29:33.748Z,46.12
2023-06-22T02:30:33.851Z,46.11
2023-06-22T02:31:32.894Z,46.08
2023-06-22T02:32:33.945Z,46.12
2023-06-22T02:33:32.980Z,46.09
2023-06-22T02:34:34.032Z,46.12
2023-06-22T02:35:34.120Z,46.10
2023-06-22T02:36:33.176Z,46.10
2023-06-22T02:37:34.239Z,46.08
2023-06-22T02:38:33.297Z,46.11
2023-06-22T02:39:34.360Z,46.11
2023-06-22T02:40:34.427Z,46.10
2023-06-22T02:41:33.478Z,46.10
2023-06-22T02:42:33.560Z,46.09
2023-06-22T02:43:34.583Z,46.09
2023-06-22T02:44:34.664Z,46.09
2023-06-22T02:45:34.749Z,46.08
2023-06-22T02:46:34.781Z,46.07
2023-06-22T02:47:34.852Z,46.07
2023-06-22T02:48:34.911Z,46.05
2023-06-22T02:49:34.969Z,46.04
2023-06-22T02:50:35.044Z,46.06
2023-06-22T02:51:34.099Z,46.07
2023-06-22T02:52:34.147Z,46.07
2023-06-22T02:53:34.222Z,46.09
2023-06-22T02:54:34.279Z,46.06
2023-06-22T02:55:35.395Z,46.08
2023-06-22T02:56:35.425Z,46.07
2023-06-22T02:57:35.491Z,46.04
2023-06-22T02:58:35.572Z,46.06
2023-06-22T02:59:35.628Z,46.06
2023-06-22T03:00:35.713Z,46.10
2023-06-22T03:01:35.822Z,46.08
2023-06-22T03:02:35.902Z,46.05
2023-06-22T03:03:34.993Z,46.06
2023-06-22T03:04:35.926Z,46.07
2023-06-22T03:05:36.006Z,46.09
2023-06-22T03:06:36.042Z,46.06
2023-06-22T03:07:35.120Z,46.06
2023-06-22T03:08:35.173Z,46.06
2023-06-22T03:09:35.254Z,46.04
2023-06-22T03:10:35.320Z,46.05
2023-06-22T03:11:35.364Z,46.02
2023-06-22T03:12:35.415Z,46.05
2023-06-22T03:13:36.483Z,46.06
2023-06-22T03:14:35.561Z,46.02
2023-06-22T03:15:35.624Z,46.02
2023-06-22T03:16:36.683Z,46.03
2023-06-22T03:17:35.754Z,46.04
2023-06-22T03:18:35.777Z,46.03
2023-06-22T03:19:36.858Z,46.01
2023-06-22T03:20:36.918Z,46.06
2023-06-22T03:21:37.027Z,46.02
2023-06-22T03:22:37.058Z,46.03
2023-06-22T03:23:37.114Z,46.03
2023-06-22T03:24:37.159Z,46.00
2023-06-22T03:25:37.263Z,46.02
2023-06-22T03:26:37.295Z,46.02
2023-06-22T03:27:36.362Z,46.00
2023-06-22T03:28:36.427Z,46.01
2023-06-22T03:29:37.514Z,46.01
2023-06-22T03:30:36.545Z,46.02
2023-06-22T03:31:36.629Z,45.98
2023-06-22T03:32:37.695Z,45.97
2023-06-22T03:33:36.742Z,46.01
2023-06-22T03:34:37.784Z,45.98
2023-06-22T03:35:36.829Z,45.99
2023-06-22T03:36:36.886Z,45.97
2023-06-22T03:37:37.955Z,45.98
2023-06-22T03:38:37.016Z,45.99
2023-06-22T03:39:37.085Z,46.00
2023-06-22T03:40:38.165Z,45.96
2023-06-22T03:41:38.231Z,45.98
2023-06-22T03:42:37.329Z,45.95
2023-06-22T03:43:38.338Z,45.96
2023-06-22T03:44:37.385Z,45.96
2023-06-22T03:45:38.482Z,45.98
2023-06-22T03:46:38.625Z,45.97
2023-06-22T03:47:38.577Z,45.95
2023-06-22T03:48:37.628Z,45.96
2023-06-22T03:49:38.711Z,45.96
2023-06-22T03:50:38.773Z,45.95
2023-06-22T03:51:37.824Z,45.94
2023-06-22T03:52:38.918Z,45.97
2023-06-22T03:53:38.945Z,45.92
2023-06-22T03:54:38.016Z,45.91
2023-06-22T03:55:38.091Z,45.93
2023-06-22T03:56:39.137Z,45.91
2023-06-22T03:57:38.214Z,45.93
2023-06-22T03:58:38.275Z,45.93
2023-06-22T03:59:39.348Z,45.95
2023-06-22T04:00:39.392Z,45.95
2023-06-22T04:01:38.493Z,45.91
2023-06-22T04:02:39.570Z,45.93
2023-06-22T04:03:38.624Z,45.91
2023-06-22T04:04:39.773Z,45.90
2023-06-22T04:05:38.725Z,45.90
2023-06-22T04:06:39.787Z,45.90
2023-06-22T04:07:39.837Z,45.91
2023-06-22T04:08:39.900Z,45.87
2023-06-22T04:09:39.968Z,45.87
2023-06-22T04:10:40.028Z,45.84
2023-06-22T04:11:39.085Z,45.87
2023-06-22T04:12:40.134Z,45.85
2023-06-22T04:13:39.197Z,45.87
2023-06-22T04:14:39.277Z,45.85
2023-06-22T04:15:39.329Z,45.83
2023-06-22T04:16:40.405Z,45.85
2023-06-22T04:17:39.502Z,45.83
2023-06-22T04:18:40.528Z,45.84
2023-06-22T04:19:40.580Z,45.82
2023-06-22T04:20:40.637Z,45.82
2023-06-22T04:21:39.725Z,45.80
2023-06-22T04:22:40.772Z,45.81
2023-06-22T04:23:40.852Z,45.82
2023-06-22T04:24:40.894Z,45.80
2023-06-22T04:25:40.974Z,45.80
2023-06-22T04:26:40.013Z,45.78
2023-06-22T04:27:41.123Z,45.78
2023-06-22T04:28:41.145Z,45.77
2023-06-22T04:29:41.211Z,45.77
2023-06-22T04:30:41.274Z,45.78
2023-06-22T04:31:41.337Z,45.75
2023-06-22T04:32:41.440Z,45.75
2023-06-22T04:33:41.496Z,45.75
2023-06-22T04:34:40.520Z,45.75
2023-06-22T04:35:40.579Z,45.76
2023-06-22T04:36:40.655Z,45.76
2023-06-22T04:37:40.733Z,45.74
2023-06-22T04:38:40.752Z,45.73
2023-06-22T04:39:40.804Z,45.73
2023-06-22T04:40:41.873Z,45.73
2023-06-22T04:41:40.931Z,45.69
2023-06-22T04:42:40.989Z,45.72
2023-06-22T04:43:42.047Z,45.73
2023-06-22T04:44:42.094Z,45.71
2023-06-22T04:45:41.159Z,45.71
2023-06-22T04:46:42.222Z,45.70
2023-06-22T04:47:41.291Z,45.69
2023-06-22T04:48:42.328Z,45.70
2023-06-22T04:49:41.684Z,45.69
2023-06-22T04:50:41.437Z,45.68
2023-06-22T04:51:41.512Z,45.68
2023-06-22T04:52:42.590Z,45.69
2023-06-22T04:53:42.633Z,45.69
2023-06-22T04:54:41.689Z,45.64
2023-06-22T04:55:41.746Z,45.66
2023-06-22T04:56:42.802Z,45.66
2023-06-22T04:57:42.857Z,45.66
2023-06-22T04:58:42.907Z,45.66
2023-06-22T04:59:41.970Z,45.65
2023-06-22T05:00:42.044Z,45.62
2023-06-22T05:01:43.083Z,45.61
2023-06-22T05:02:43.226Z,45.60
2023-06-22T05:03:43.488Z,45.63
2023-06-22T05:04:43.409Z,45.62
2023-06-22T05:05:43.353Z,45.60
2023-06-22T05:06:42.394Z,45.64
2023-06-22T05:07:43.433Z,45.63
2023-06-22T05:08:43.507Z,45.63
2023-06-22T05:09:42.568Z,45.64
2023-06-22T05:10:55.326Z,45.65
2023-06-22T05:11:43.628Z,45.67
2023-06-22T05:12:43.614Z,45.60
2023-06-22T05:13:43.601Z,45.63
2023-06-22T05:14:42.603Z,45.63
2023-06-22T05:15:42.584Z,45.63
2023-06-22T05:16:42.581Z,45.63
2023-06-22T05:17:42.619Z,45.63
2023-06-22T05:18:43.624Z,45.64
2023-06-22T05:19:43.564Z,45.64
2023-06-22T05:20:42.559Z,45.66
2023-06-22T05:21:43.569Z,45.65
2023-06-22T05:22:43.547Z,45.65
2023-06-22T05:23:43.526Z,45.63
2023-06-22T05:24:42.515Z,45.67
2023-06-22T05:25:42.548Z,45.64
2023-06-22T05:26:42.521Z,45.63
2023-06-22T05:27:43.518Z,45.62
2023-06-22T05:28:42.508Z,45.62
2023-06-22T05:29:42.491Z,45.61
2023-06-22T05:30:43.508Z,45.62
2023-06-22T05:31:43.483Z,45.63
2023-06-22T05:32:43.492Z,45.61
2023-06-22T05:33:43.475Z,45.59
2023-06-22T05:34:43.457Z,45.59
2023-06-22T05:35:42.467Z,45.61
2023-06-22T05:36:42.443Z,45.63
2023-06-22T05:37:43.490Z,45.63
2023-06-22T05:38:43.495Z,45.63
2023-06-22T05:39:42.531Z,45.61
2023-06-22T05:40:43.578Z,45.66
2023-06-22T05:41:43.644Z,45.65
2023-06-22T05:42:42.678Z,45.64
2023-06-22T05:43:42.733Z,45.65
2023-06-22T05:44:43.803Z,45.62
2023-06-22T05:45:42.877Z,45.65
2023-06-22T05:46:43.882Z,45.64
2023-06-22T05:47:43.975Z,45.64
2023-06-22T05:48:43.985Z,45.63
2023-06-22T05:49:44.035Z,45.61
2023-06-22T05:50:43.107Z,45.62
2023-06-22T05:51:44.156Z,45.56
2023-06-22T05:52:43.192Z,45.58
2023-06-22T05:53:43.281Z,45.60
2023-06-22T05:54:44.309Z,45.56
2023-06-22T05:55:44.350Z,45.56
2023-06-22T05:56:44.444Z,45.58
2023-06-22T05:57:44.466Z,45.57
2023-06-22T05:58:43.516Z,45.57
2023-06-22T05:59:44.554Z,45.57
2023-06-22T06:00:43.595Z,45.56
2023-06-22T06:01:43.885Z,45.54
2023-06-22T06:02:45.004Z,45.56
2023-06-22T06:03:43.797Z,45.55
2023-06-22T06:04:44.801Z,45.62
2023-06-22T06:05:43.857Z,45.77
2023-06-22T06:06:44.924Z,45.85
2023-06-22T06:07:44.984Z,45.84
2023-06-22T06:08:45.002Z,46.08
2023-06-22T06:09:44.063Z,46.13
2023-06-22T06:10:44.088Z,46.19
2023-06-22T06:11:45.265Z,45.95
2023-06-22T06:12:45.184Z,45.92
2023-06-22T06:13:45.237Z,45.97
2023-06-22T06:14:45.260Z,45.94
2023-06-22T06:15:45.311Z,46.04
2023-06-22T06:16:45.346Z,46.19
2023-06-22T06:17:44.388Z,46.27
2023-06-22T06:18:44.388Z,46.20
2023-06-22T06:19:45.411Z,46.13
2023-06-22T06:20:45.436Z,46.19
2023-06-22T06:21:44.475Z,46.18
2023-06-22T06:22:45.474Z,46.10
2023-06-22T06:23:45.504Z,46.11
2023-06-22T06:24:45.540Z,46.05
2023-06-22T06:25:45.621Z,46.10
2023-06-22T06:26:44.677Z,46.21
2023-06-22T06:27:45.602Z,46.26
2023-06-22T06:28:44.640Z,46.28
2023-06-22T06:29:44.675Z,46.28
2023-06-22T06:30:44.700Z,46.41
2023-06-22T06:31:45.812Z,46.48
2023-06-22T06:32:44.796Z,46.54
2023-06-22T06:33:45.820Z,46.49
2023-06-22T06:34:45.839Z,46.44
2023-06-22T06:35:45.857Z,46.53
2023-06-22T06:36:45.886Z,46.55
2023-06-22T06:37:45.905Z,46.67
2023-06-22T06:38:45.931Z,46.61
2023-06-22T06:39:45.974Z,46.66
2023-06-22T06:40:45.988Z,46.75
2023-06-22T06:41:46.062Z,46.72
2023-06-22T06:42:46.055Z,46.71
2023-06-22T06:43:45.067Z,46.69
2023-06-22T06:44:45.091Z,46.84
2023-06-22T06:45:45.205Z,46.98
2023-06-22T06:46:46.230Z,46.96
2023-06-22T06:47:45.253Z,46.97
2023-06-22T06:48:46.195Z,46.94
2023-06-22T06:49:46.233Z,46.93
2023-06-22T06:50:46.255Z,46.96
2023-06-22T06:51:46.330Z,46.98
2023-06-22T06:52:46.298Z,47.04
2023-06-22T06:53:45.315Z,47.06
2023-06-22T06:54:46.329Z,47.03
2023-06-22T06:55:46.365Z,46.98
2023-06-22T06:56:45.915Z,46.97
2023-06-22T06:57:45.466Z,46.96
2023-06-22T06:58:46.707Z,46.95
2023-06-22T06:59:46.453Z,46.92
2023-06-22T07:00:46.465Z,46.92
2023-06-22T07:01:45.660Z,46.92
2023-06-22T07:02:46.686Z,47.02
2023-06-22T07:03:45.534Z,47.08
2023-06-22T07:04:46.601Z,47.30
2023-06-22T07:05:45.561Z,47.31
2023-06-22T07:06:45.591Z,47.33
2023-06-22T07:07:45.604Z,47.21
2023-06-22T07:08:46.622Z,47.22
2023-06-22T07:09:46.633Z,47.34
2023-06-22T07:10:45.668Z,47.39
2023-06-22T07:11:46.700Z,47.42
2023-06-22T07:12:46.717Z,47.40
2023-06-22T07:13:46.760Z,47.37
2023-06-22T07:14:46.752Z,47.46
2023-06-22T07:15:46.749Z,47.44
2023-06-22T07:16:46.780Z,47.44
2023-06-22T07:17:46.934Z,47.42
2023-06-22T07:18:46.818Z,47.33
2023-06-22T07:19:46.833Z,47.45
2023-06-22T07:20:46.860Z,47.70
2023-06-22T07:21:45.878Z,47.62
2023-06-22T07:22:46.033Z,47.73
2023-06-22T07:23:46.920Z,47.70
2023-06-22T07:24:46.928Z,47.80
2023-06-22T07:25:45.938Z,47.88
2023-06-22T07:26:46.965Z,47.81
2023-06-22T07:27:46.985Z,47.79
2023-06-22T07:28:46.000Z,47.89
2023-06-22T07:29:46.209Z,47.98
2023-06-22T07:30:47.101Z,47.96
2023-06-22T07:31:47.231Z,47.87
2023-06-22T07:32:47.150Z,47.90
2023-06-22T07:33:47.081Z,47.86
2023-06-22T07:34:47.090Z,47.89
2023-06-22T07:35:47.111Z,47.86
2023-06-22T07:36:46.143Z,47.83
2023-06-22T07:37:46.144Z,47.87
2023-06-22T07:38:47.183Z,47.94
2023-06-22T07:39:47.202Z,47.91
2023-06-22T07:40:46.201Z,47.97
2023-06-22T07:41:47.260Z,47.93
2023-06-22T07:42:47.231Z,48.03
2023-06-22T07:43:47.265Z,47.97
2023-06-22T07:44:46.242Z,48.06
2023-06-22T07:45:47.466Z,48.10
2023-06-22T07:46:46.357Z,48.04
2023-06-22T07:47:47.337Z,48.12
2023-06-22T07:48:47.303Z,48.51
2023-06-22T07:49:46.310Z,49.12
2023-06-22T07:50:47.349Z,48.70
2023-06-22T07:51:47.873Z,48.76
2023-06-22T07:52:47.386Z,48.81
2023-06-22T07:53:47.396Z,48.76
2023-06-22T07:54:47.395Z,48.73
2023-06-22T07:55:49.821Z,48.64
2023-06-22T07:56:47.418Z,48.72
2023-06-22T07:57:47.420Z,48.66
2023-06-22T07:58:46.390Z,48.94
2023-06-22T07:59:47.390Z,49.03
2023-06-22T08:00:47.390Z,48.93
2023-06-22T08:01:46.517Z,48.75
2023-06-22T08:02:47.640Z,48.66
2023-06-22T08:03:47.447Z,48.76
2023-06-22T08:04:47.369Z,48.82
2023-06-22T08:05:46.354Z,48.81
2023-06-22T08:06:46.351Z,48.76
2023-06-22T08:07:48.579Z,48.66
2023-06-22T08:08:46.582Z,48.64
2023-06-22T08:09:47.603Z,48.60
2023-06-22T08:10:47.606Z,48.64
2023-06-22T08:11:47.638Z,48.65
2023-06-22T08:12:47.635Z,48.66
2023-06-22T08:13:47.636Z,48.58
2023-06-22T08:14:47.633Z,48.59
2023-06-22T08:15:47.985Z,48.60
2023-06-22T08:16:47.625Z,48.53
2023-06-22T08:17:46.995Z,48.53
2023-06-22T08:18:46.605Z,48.68
2023-06-22T08:19:47.594Z,48.72
2023-06-22T08:20:47.596Z,48.70
2023-06-22T08:21:47.597Z,48.64
2023-06-22T08:22:47.576Z,48.58
2023-06-22T08:23:47.577Z,48.52
2023-06-22T08:24:47.576Z,48.51
2023-06-22T08:25:46.583Z,48.55
2023-06-22T08:26:46.567Z,48.59
2023-06-22T08:27:47.562Z,48.63
2023-06-22T08:28:49.054Z,48.62
2023-06-22T08:29:47.525Z,48.58
2023-06-22T08:30:47.529Z,48.53
2023-06-22T08:31:47.574Z,48.55
2023-06-22T08:32:46.551Z,48.50
2023-06-22T08:33:49.818Z,48.48
2023-06-22T08:34:47.501Z,48.41
2023-06-22T08:35:47.564Z,48.45
2023-06-22T08:36:47.496Z,48.52
2023-06-22T08:37:46.470Z,48.54
2023-06-22T08:38:47.380Z,48.43
2023-06-22T08:39:47.458Z,48.42
2023-06-22T08:40:47.441Z,48.43
2023-06-22T08:41:47.473Z,48.45
2023-06-22T08:42:47.897Z,48.45
2023-06-22T08:43:46.420Z,48.46
2023-06-22T08:44:46.410Z,48.43
2023-06-22T08:45:47.431Z,48.40
2023-06-22T08:46:47.740Z,48.35
2023-06-22T08:47:47.460Z,48.33
2023-06-22T08:48:46.382Z,48.28
2023-06-22T08:49:47.441Z,48.38
2023-06-22T08:50:47.382Z,48.34
2023-06-22T08:51:46.383Z,48.30
2023-06-22T08:52:46.363Z,48.33
2023-06-22T08:53:46.419Z,48.37
2023-06-22T08:54:46.363Z,48.32
2023-06-22T08:55:46.369Z,48.36
2023-06-22T08:56:46.344Z,48.47
2023-06-22T08:57:47.410Z,48.51
2023-06-22T08:58:47.334Z,48.43
2023-06-22T08:59:47.330Z,48.42
2023-06-22T09:00:47.328Z,48.44
2023-06-22T09:01:46.319Z,48.48
2023-06-22T09:02:46.624Z,48.51
2023-06-22T09:03:47.441Z,48.46
2023-06-22T09:04:47.426Z,48.67
2023-06-22T09:05:47.356Z,48.69
2023-06-22T09:06:47.297Z,48.80
2023-06-22T09:07:47.470Z,48.80
2023-06-22T09:08:47.278Z,48.78
2023-06-22T09:09:46.292Z,48.76
2023-06-22T09:10:47.259Z,48.78
2023-06-22T09:11:47.255Z,48.75
2023-06-22T09:12:46.249Z,48.68
2023-06-22T09:13:47.236Z,48.63
2023-06-22T09:14:47.257Z,48.67
2023-06-22T09:15:47.231Z,48.68
2023-06-22T09:16:47.215Z,48.53
2023-06-22T09:17:46.335Z,48.47
2023-06-22T09:18:47.205Z,48.62
2023-06-22T09:19:47.218Z,48.57
2023-06-22T09:20:47.210Z,48.72
2023-06-22T09:21:47.208Z,48.66
2023-06-22T09:22:47.185Z,48.68
2023-06-22T09:23:46.164Z,48.72
2023-06-22T09:24:46.162Z,48.70
2023-06-22T09:25:47.155Z,48.67
2023-06-22T09:26:46.162Z,48.58
2023-06-22T09:27:46.139Z,48.61
2023-06-22T09:28:46.141Z,48.57
2023-06-22T09:29:46.120Z,48.53
2023-06-22T09:30:47.136Z,48.45
2023-06-22T09:31:46.143Z,48.49
2023-06-22T09:32:47.154Z,48.44
2023-06-22T09:33:46.118Z,48.42
2023-06-22T09:34:46.105Z,48.39
2023-06-22T09:35:47.094Z,48.36
2023-06-22T09:36:47.078Z,48.40
2023-06-22T09:37:47.103Z,48.37
2023-06-22T09:38:47.074Z,48.36
2023-06-22T09:39:46.052Z,48.36
2023-06-22T09:40:47.060Z,48.38
2023-06-22T09:41:46.077Z,48.45
2023-06-22T09:42:47.059Z,48.48
2023-06-22T09:43:47.052Z,48.54
2023-06-22T09:44:46.053Z,48.58
2023-06-22T09:45:47.037Z,48.47
2023-06-22T09:46:47.052Z,48.45
2023-06-22T09:47:47.453Z,48.48
2023-06-22T09:48:47.033Z,48.50
2023-06-22T09:49:48.450Z,48.43
2023-06-22T09:50:46.036Z,48.50
2023-06-22T09:51:47.023Z,48.70
2023-06-22T09:52:48.595Z,48.85
2023-06-22T09:53:47.017Z,48.89
2023-06-22T09:54:46.996Z,48.86
2023-06-22T09:55:47.213Z,48.79
2023-06-22T09:56:46.982Z,48.81
2023-06-22T09:57:47.008Z,48.79
2023-06-22T09:58:45.977Z,48.81
2023-06-22T09:59:46.267Z,48.90
2023-06-22T10:00:46.956Z,48.95
2023-06-22T10:01:46.951Z,49.13
2023-06-22T10:02:47.095Z,49.32
2023-06-22T10:03:46.132Z,49.21
2023-06-22T10:04:47.168Z,49.10
2023-06-22T10:05:47.330Z,49.10
2023-06-22T10:06:45.926Z,49.37
2023-06-22T10:07:45.990Z,49.70
2023-06-22T10:08:45.900Z,49.45
2023-06-22T10:09:45.912Z,49.40
2023-06-22T10:10:46.879Z,49.35
2023-06-22T10:11:46.898Z,49.29
2023-06-22T10:12:46.886Z,49.27
2023-06-22T10:13:46.855Z,49.33
2023-06-22T10:14:46.857Z,49.30
2023-06-22T10:15:45.842Z,49.29
2023-06-22T10:16:45.852Z,49.36
2023-06-22T10:17:45.870Z,49.39
2023-06-22T10:18:45.819Z,49.43
2023-06-22T10:19:46.858Z,49.42
2023-06-22T10:20:45.809Z,49.39
2023-06-22T10:21:46.799Z,49.34
2023-06-22T10:22:46.831Z,49.35
2023-06-22T10:23:46.808Z,49.43
2023-06-22T10:24:45.828Z,49.49
2023-06-22T10:25:45.827Z,49.48
2023-06-22T10:26:46.784Z,49.51
2023-06-22T10:27:46.784Z,49.45
2023-06-22T10:28:45.763Z,49.42
2023-06-22T10:29:45.755Z,49.37
2023-06-22T10:30:46.762Z,49.39
2023-06-22T10:31:45.726Z,49.43
2023-06-22T10:32:46.789Z,49.54
2023-06-22T10:33:46.725Z,49.52
2023-06-22T10:34:46.744Z,49.52
2023-06-22T10:35:46.776Z,49.41
2023-06-22T10:36:46.797Z,49.60
2023-06-22T10:37:46.832Z,49.62
2023-06-22T10:38:46.812Z,49.54
2023-06-22T10:39:46.824Z,49.40
2023-06-22T10:40:46.847Z,49.45
2023-06-22T10:41:46.933Z,49.50
2023-06-22T10:42:45.971Z,49.42
2023-06-22T10:43:47.435Z,49.41
2023-06-22T10:44:47.098Z,49.41
2023-06-22T10:45:47.147Z,49.54
2023-06-22T10:46:47.221Z,49.40
2023-06-22T10:47:47.294Z,49.51
2023-06-22T10:48:47.469Z,49.50
2023-06-22T10:49:46.412Z,49.50
2023-06-22T10:50:47.473Z,49.50
2023-06-22T10:51:47.532Z,49.46
2023-06-22T10:52:47.591Z,49.48
2023-06-22T10:53:47.666Z,49.58
2023-06-22T10:54:47.735Z,49.68
2023-06-22T10:55:56.808Z,49.70
2023-06-22T10:56:47.798Z,49.74
2023-06-22T10:57:47.810Z,49.67
2023-06-22T10:58:47.782Z,49.76
2023-06-22T10:59:47.775Z,49.80
2023-06-22T11:00:47.754Z,49.67
2023-06-22T11:01:47.765Z,49.59
2023-06-22T11:02:46.832Z,49.50
2023-06-22T11:03:46.898Z,49.49
2023-06-22T11:04:47.772Z,49.50
2023-06-22T11:05:47.735Z,49.51
2023-06-22T11:06:47.718Z,49.66
2023-06-22T11:07:47.287Z,49.68
2023-06-22T11:08:57.692Z,49.71
2023-06-22T11:09:47.718Z,49.73
2023-06-22T11:10:46.698Z,49.67
2023-06-22T11:11:46.693Z,49.72
2023-06-22T11:12:47.696Z,49.70
2023-06-22T11:13:47.707Z,49.69
2023-06-22T11:14:46.691Z,49.59
2023-06-22T11:15:47.655Z,49.74
2023-06-22T11:16:47.647Z,49.66
2023-06-22T11:17:47.725Z,49.65
2023-06-22T11:18:47.697Z,49.60
2023-06-22T11:19:47.628Z,49.53
2023-06-22T11:20:47.630Z,49.64
2023-06-22T11:21:47.608Z,49.58
2023-06-22T11:22:46.606Z,49.58
2023-06-22T11:23:47.618Z,49.67
2023-06-22T11:24:47.624Z,49.73
2023-06-22T11:25:47.612Z,49.74
2023-06-22T11:26:47.577Z,49.72
2023-06-22T11:27:47.574Z,49.71
2023-06-22T11:28:47.610Z,49.63
2023-06-22T11:29:47.590Z,49.67
2023-06-22T11:30:46.561Z,49.64
2023-06-22T11:31:46.553Z,49.65
2023-06-22T11:32:47.650Z,49.64
2023-06-22T11:33:47.619Z,49.57
2023-06-22T11:34:47.655Z,49.56
2023-06-22T11:35:47.735Z,49.54
2023-06-22T11:36:47.775Z,49.44
2023-06-22T11:37:47.848Z,49.44
2023-06-22T11:38:47.991Z,49.46
2023-06-22T11:39:53.220Z,49.46
2023-06-22T11:40:47.959Z,49.45
2023-06-22T11:41:46.946Z,49.48
2023-06-22T11:42:46.938Z,49.45
2023-06-22T11:43:47.938Z,49.41
2023-06-22T11:44:46.944Z,49.82
2023-06-22T11:45:47.977Z,49.72
2023-06-22T11:46:46.920Z,49.81
2023-06-22T11:47:47.001Z,49.94
2023-06-22T11:48:47.895Z,50.35
2023-06-22T11:49:46.907Z,50.06
2023-06-22T11:50:46.884Z,50.12
2023-06-22T11:51:47.875Z,50.16
2023-06-22T11:52:47.876Z,50.41
2023-06-22T11:53:47.881Z,50.57
2023-06-22T11:54:46.861Z,50.77
2023-06-22T11:55:47.858Z,50.78
2023-06-22T11:56:47.845Z,50.69
2023-06-22T11:57:47.833Z,50.65
2023-06-22T11:58:47.834Z,50.90
2023-06-22T11:59:47.813Z,50.57
2023-06-22T12:00:51.618Z,50.60
2023-06-22T12:01:47.897Z,50.63
2023-06-22T12:02:46.917Z,51.21
2023-06-22T12:03:47.956Z,50.70
2023-06-22T12:04:47.785Z,51.11
2023-06-22T12:05:46.802Z,51.15
2023-06-22T12:06:47.777Z,51.06
2023-06-22T12:07:46.759Z,51.07
2023-06-22T12:08:47.769Z,51.05
2023-06-22T12:09:47.754Z,51.02
2023-06-22T12:10:46.784Z,51.22
2023-06-22T12:11:46.729Z,51.19
2023-06-22T12:12:47.727Z,51.09
2023-06-22T12:13:46.723Z,50.99
2023-06-22T12:14:46.726Z,50.96
2023-06-22T12:15:47.709Z,51.08
2023-06-22T12:16:46.721Z,51.42
2023-06-22T12:17:47.786Z,51.24
2023-06-22T12:18:47.700Z,51.50
2023-06-22T12:19:47.697Z,51.33
2023-06-22T12:20:46.689Z,51.30
2023-06-22T12:21:47.726Z,51.37
2023-06-22T12:22:47.735Z,51.22
2023-06-22T12:23:46.750Z,51.75
2023-06-22T12:24:47.773Z,51.75
2023-06-22T12:25:46.796Z,51.98
2023-06-22T12:26:46.814Z,51.77
2023-06-22T12:27:46.840Z,51.94
2023-06-22T12:28:47.898Z,51.62
2023-06-22T12:29:47.910Z,51.33
2023-06-22T12:30:47.938Z,51.38
2023-06-22T12:31:47.995Z,51.22
2023-06-22T12:32:47.075Z,51.20
2023-06-22T12:33:47.043Z,51.32
2023-06-22T12:34:48.059Z,51.21
2023-06-22T12:35:48.068Z,51.04
2023-06-22T12:36:48.106Z,50.98
2023-06-22T12:37:47.156Z,50.95
2023-06-22T12:38:48.196Z,50.89
2023-06-22T12:39:48.239Z,50.95
2023-06-22T12:40:48.273Z,50.98
2023-06-22T12:41:47.325Z,51.08
2023-06-22T12:42:48.324Z,51.23
2023-06-22T12:43:47.348Z,51.50
2023-06-22T12:44:47.370Z,51.41
2023-06-22T12:45:48.392Z,51.70
2023-06-22T12:46:48.407Z,51.50
2023-06-22T12:47:48.456Z,51.86
2023-06-22T12:48:48.469Z,51.94
2023-06-22T12:49:48.563Z,53.34
2023-06-22T12:50:48.503Z,52.14
2023-06-22T12:51:48.536Z,52.92
2023-06-22T12:52:48.544Z,52.75